Terminal Aerodrome Forecast
Issued by NWS Boston, MA

Home | Current Version | Previous Version | Text Only | Print | Product List | Glossary On
Versions: 1 2 3 4 5 6 7 8 9 10 11 12 13 14 15 16 17 18 19 20 21 22 23 24 25 26 27 28 29 30 31 32 33 34 35 36 37 38
755
FTUS41 KBOX 311513 AAA
TAFBDL
TAF AMD
KBDL 311513Z 3115/0118 20007KT P6SM FEW050 BKN150
     FM312200 21006KT P6SM VCSH BKN100
     FM010900 VRB03KT 3SM BR VCSH OVC050
     FM011200 VRB03KT P6SM VCSH OVC035
     FM011400 31004KT P6SM VCSH BKN040
     FM011700 34005KT P6SM BKN060=

USA.gov is the U.S. government's official web portal to all federal, state and local government web resources and services.